createdAt,value
2018-05-17T00:02:13.166Z,101929.22
2018-05-17T00:04:40.008Z,101928.11
2018-05-17T00:07:06.885Z,101928.08
2018-05-17T00:09:33.882Z,101927.80
2018-05-17T00:12:01.458Z,101934.59
2018-05-17T00:14:29.033Z,101933.31
2018-05-17T00:16:55.936Z,101928.29
2018-05-17T00:19:22.878Z,101924.66
2018-05-17T00:21:49.713Z,101922.51
2018-05-17T00:24:16.680Z,101931.82
2018-05-17T00:26:43.514Z,101929.47
2018-05-17T00:29:10.349Z,101932.14
2018-05-17T00:31:37.401Z,101933.97
2018-05-17T00:34:04.246Z,101945.59
2018-05-17T00:36:31.088Z,101931.74
2018-05-17T00:38:58.112Z,101932.64
2018-05-17T00:41:24.949Z,101933.61
2018-05-17T00:43:51.787Z,101938.36
2018-05-17T00:46:18.668Z,101935.78
2018-05-17T00:48:45.527Z,101933.33
2018-05-17T00:51:12.348Z,101942.65
2018-05-17T00:53:39.222Z,101927.05
2018-05-17T00:56:06.061Z,101937.59
2018-05-17T00:58:32.880Z,101940.48
2018-05-17T01:00:59.952Z,101938.05
2018-05-17T01:03:26.812Z,101929.53
2018-05-17T01:05:54.384Z,101927.89
2018-05-17T01:08:22.014Z,101924.75
2018-05-17T01:10:48.841Z,101931.56
2018-05-17T01:13:15.692Z,101936.41
2018-05-17T01:15:42.721Z,101940.51
2018-05-17T01:18:09.553Z,101939.27
2018-05-17T01:20:36.420Z,101942.83
2018-05-17T01:23:03.408Z,101939.41
2018-05-17T01:25:30.997Z,101931.64
2018-05-17T01:27:57.852Z,101933.95
2018-05-17T01:30:24.827Z,101924.59
2018-05-17T01:32:51.680Z,101924.47
2018-05-17T01:35:18.525Z,101925.98
2018-05-17T01:38:03.782Z,101927.61
2018-05-17T01:40:30.613Z,101928.97
2018-05-17T01:42:57.496Z,101924.34
2018-05-17T01:45:24.540Z,101926.89
2018-05-17T01:47:51.390Z,101932.48
2018-05-17T01:50:18.224Z,101928.82
2018-05-17T01:52:45.097Z,101925.59
2018-05-17T01:55:12.732Z,101941.33
2018-05-17T01:57:39.624Z,101938.80
2018-05-17T02:00:06.529Z,101940.28
2018-05-17T02:02:33.370Z,101936.09
2018-05-17T02:05:00.264Z,101941.52
2018-05-17T02:07:27.125Z,101940.34
2018-05-17T02:09:53.964Z,101936.00
2018-05-17T02:12:20.869Z,101930.95
2018-05-17T02:14:48.448Z,101935.81
2018-05-17T02:17:15.280Z,101941.74
2018-05-17T02:19:43.069Z,101949.38
2018-05-17T02:22:09.893Z,101943.20
2018-05-17T02:24:37.458Z,101937.09
2018-05-17T02:27:05.273Z,101940.42
2018-05-17T02:29:32.111Z,101940.91
2018-05-17T02:31:58.959Z,101941.53
2018-05-17T02:34:26.076Z,101943.89
2018-05-17T02:36:52.919Z,101948.14
2018-05-17T02:39:19.753Z,101943.50
2018-05-17T02:41:46.631Z,101945.73
2018-05-17T02:44:13.469Z,101951.50
2018-05-17T02:46:40.322Z,101949.26
2018-05-17T02:49:07.251Z,101954.11
2018-05-17T02:51:34.080Z,101951.48
2018-05-17T02:54:00.940Z,101952.78
2018-05-17T02:56:27.811Z,101947.72
2018-05-17T02:58:54.674Z,101946.02
2018-05-17T03:01:21.530Z,101947.22
2018-05-17T03:03:49.147Z,101948.86
2018-05-17T03:06:15.985Z,101940.42
2018-05-17T03:08:42.805Z,101944.47
2018-05-17T03:11:09.812Z,101943.43
2018-05-17T03:13:36.656Z,101946.71
2018-05-17T03:16:03.541Z,101944.89
2018-05-17T03:18:31.152Z,101942.98
2018-05-17T03:20:57.996Z,101959.11
2018-05-17T03:23:24.843Z,101953.66
2018-05-17T03:25:51.727Z,101963.92
2018-05-17T03:28:19.301Z,101954.20
2018-05-17T03:30:46.135Z,101950.50
2018-05-17T03:33:13.755Z,101957.24
2018-05-17T03:35:40.631Z,101948.53
2018-05-17T03:38:08.206Z,101957.94
2018-05-17T03:40:35.080Z,101951.46
2018-05-17T03:43:01.916Z,101954.89
2018-05-17T03:45:28.760Z,101956.63
2018-05-17T03:47:55.641Z,101957.88
2018-05-17T03:50:22.629Z,101948.94
2018-05-17T03:52:49.459Z,101952.33
2018-05-17T03:55:17.061Z,101955.69
2018-05-17T03:57:43.930Z,101955.42
2018-05-17T04:00:10.776Z,101959.62
2018-05-17T04:02:55.839Z,101949.03
2018-05-17T04:05:40.900Z,101946.27
2018-05-17T04:08:07.768Z,101957.22
2018-05-17T04:10:34.599Z,101954.47
2018-05-17T04:13:01.435Z,101948.98
2018-05-17T04:15:28.308Z,101959.17
2018-05-17T04:17:55.140Z,101950.56
2018-05-17T04:20:21.980Z,101956.09
2018-05-17T04:22:48.858Z,101951.95
2018-05-17T04:25:16.431Z,101956.34
2018-05-17T04:27:44.034Z,101955.87
2018-05-17T04:30:10.915Z,101953.30
2018-05-17T04:32:37.758Z,101954.64
2018-05-17T04:35:04.843Z,101953.80
2018-05-17T04:37:31.672Z,101961.87
2018-05-17T04:39:58.527Z,101962.05
2018-05-17T04:42:25.408Z,101953.12
2018-05-17T04:44:52.253Z,101960.97
2018-05-17T04:47:19.132Z,101957.22
2018-05-17T04:49:45.995Z,101956.97
2018-05-17T04:52:12.901Z,101948.06
2018-05-17T04:54:40.809Z,101954.20
2018-05-17T04:57:07.665Z,101955.97
2018-05-17T04:59:34.496Z,101953.45
2018-05-17T05:02:02.131Z,101956.81
2018-05-17T05:04:28.976Z,101957.36
2018-05-17T05:06:55.828Z,101967.03
2018-05-17T05:09:22.861Z,101970.66
2018-05-17T05:11:49.691Z,101970.99
2018-05-17T05:14:16.531Z,101971.40
2018-05-17T05:16:43.643Z,101974.09
2018-05-17T05:19:10.464Z,101968.20
2018-05-17T05:21:38.077Z,101966.16
2018-05-17T05:24:05.017Z,101961.22
2018-05-17T05:26:31.868Z,101962.74
2018-05-17T05:28:58.692Z,101953.70
2018-05-17T05:31:25.672Z,101953.05
2018-05-17T05:33:52.650Z,101954.27
2018-05-17T05:36:19.480Z,101951.13
2018-05-17T05:38:46.372Z,101965.45
2018-05-17T05:41:13.216Z,101966.34
2018-05-17T05:43:40.056Z,101961.76
2018-05-17T05:46:07.684Z,101968.25
2018-05-17T05:48:34.515Z,101979.14
2018-05-17T05:51:01.344Z,101967.19
2018-05-17T05:53:28.417Z,101976.75
2018-05-17T05:55:55.309Z,101973.88
2018-05-17T05:58:22.143Z,101976.58
2018-05-17T06:00:49.023Z,101968.91
2018-05-17T06:03:15.841Z,101981.15
2018-05-17T06:05:42.694Z,101981.77
2018-05-17T06:08:09.584Z,101980.88
2018-05-17T06:10:36.416Z,101992.78
2018-05-17T06:13:03.278Z,101982.09
2018-05-17T06:15:30.157Z,101990.08
2018-05-17T06:17:57.012Z,102000.22
2018-05-17T06:20:23.927Z,101991.58
2018-05-17T06:22:51.564Z,101999.23
2018-05-17T06:25:18.396Z,101995.25
2018-05-17T06:27:45.228Z,102001.18
2018-05-17T06:30:12.221Z,102004.77
2018-05-17T06:32:39.809Z,102006.19
2018-05-17T06:35:06.688Z,101986.03
2018-05-17T06:37:33.635Z,101998.01
2018-05-17T06:40:00.415Z,101993.13
2018-05-17T06:42:27.988Z,101986.28
2018-05-17T06:44:55.599Z,101996.03
2018-05-17T06:47:22.440Z,101993.92
2018-05-17T06:49:49.308Z,101990.41
2018-05-17T06:52:16.188Z,102011.39
2018-05-17T06:54:43.797Z,101999.83
2018-05-17T06:57:10.639Z,102005.98
2018-05-17T06:59:37.513Z,102016.21
2018-05-17T07:02:04.372Z,102026.47
2018-05-17T07:04:31.940Z,102021.58
2018-05-17T07:06:59.555Z,102017.75
2018-05-17T07:09:26.377Z,102013.43
2018-05-17T07:11:53.230Z,102018.25
2018-05-17T07:14:20.236Z,102013.10
2018-05-17T07:16:47.806Z,102022.92
2018-05-17T07:19:14.634Z,102027.73
2018-05-17T07:21:42.246Z,102027.23
2018-05-17T07:24:09.149Z,102038.28
2018-05-17T07:26:35.956Z,102023.28
2018-05-17T07:29:02.856Z,102024.20
2018-05-17T07:31:29.801Z,102026.30
2018-05-17T07:33:56.566Z,102022.41
2018-05-17T07:36:23.503Z,102017.90
2018-05-17T07:38:50.336Z,102019.91
2018-05-17T07:41:17.184Z,102022.12
2018-05-17T07:43:44.098Z,102022.78
2018-05-17T07:46:11.664Z,102023.41
2018-05-17T07:48:39.232Z,102029.06
2018-05-17T07:51:06.175Z,102028.81
2018-05-17T07:53:33.737Z,102032.39
2018-05-17T07:56:01.320Z,102029.09
2018-05-17T07:58:28.184Z,102034.88
2018-05-17T08:00:55.009Z,102046.16
2018-05-17T08:03:21.841Z,102060.25
2018-05-17T08:05:48.876Z,102058.70
2018-05-17T08:08:15.722Z,102048.66
2018-05-17T08:10:43.293Z,102051.48
2018-05-17T08:13:10.160Z,102048.50
2018-05-17T08:15:36.999Z,102051.66
2018-05-17T08:18:03.932Z,102043.64
2018-05-17T08:20:30.811Z,102047.91
2018-05-17T08:22:57.653Z,102054.17
2018-05-17T08:25:24.485Z,102046.05
2018-05-17T08:27:51.504Z,102052.00
2018-05-17T08:30:18.332Z,102050.13
2018-05-17T08:32:45.979Z,102050.06
2018-05-17T08:35:13.160Z,102055.17
2018-05-17T08:37:41.073Z,102053.71
2018-05-17T08:40:07.901Z,102050.05
2018-05-17T08:42:34.904Z,102060.09
2018-05-17T08:45:01.802Z,102055.98
2018-05-17T08:47:28.685Z,102049.69
2018-05-17T08:49:55.548Z,102056.30
2018-05-17T08:52:23.140Z,102061.70
2018-05-17T08:54:50.000Z,102061.49
2018-05-17T08:57:16.822Z,102066.21
2018-05-17T08:59:43.696Z,102067.75
2018-05-17T09:02:10.533Z,102073.70
2018-05-17T09:04:37.427Z,102067.03
2018-05-17T09:07:05.037Z,102066.08
2018-05-17T09:09:32.015Z,102070.56
2018-05-17T09:11:58.893Z,102071.32
2018-05-17T09:14:26.535Z,102065.08
2018-05-17T09:16:54.324Z,102068.98
2018-05-17T09:19:21.159Z,102073.81
2018-05-17T09:21:48.752Z,102073.72
2018-05-17T09:24:15.760Z,102078.27
2018-05-17T09:26:43.381Z,102074.73
2018-05-17T09:29:10.316Z,102067.69
2018-05-17T09:31:37.127Z,102078.52
2018-05-17T09:34:04.810Z,102080.80
2018-05-17T09:36:31.653Z,102079.66
2018-05-17T09:38:58.680Z,102093.20
2018-05-17T09:41:25.653Z,102088.17
2018-05-17T09:43:52.417Z,102090.25
2018-05-17T09:46:19.301Z,102088.06
2018-05-17T09:48:46.905Z,102090.69
2018-05-17T09:51:13.749Z,102080.97
2018-05-17T09:53:40.620Z,102077.17
2018-05-17T09:56:07.693Z,102088.79
2018-05-17T09:58:34.520Z,102088.66
2018-05-17T10:01:01.579Z,102096.62
2018-05-17T10:03:29.184Z,102094.48
2018-05-17T10:05:56.052Z,102085.53
2018-05-17T10:08:22.938Z,102088.49
2018-05-17T10:10:50.579Z,102082.52
2018-05-17T10:13:17.444Z,102088.70
2018-05-17T10:15:45.043Z,102096.19
2018-05-17T10:18:11.912Z,102094.59
2018-05-17T10:20:38.824Z,102087.58
2018-05-17T10:23:05.732Z,102092.41
2018-05-17T10:25:32.576Z,102091.36
2018-05-17T10:27:59.408Z,102085.77
2018-05-17T10:30:26.347Z,102087.87
2018-05-17T10:32:53.267Z,102085.42
2018-05-17T10:35:20.108Z,102077.98
2018-05-17T10:37:46.969Z,102075.23
2018-05-17T10:40:14.012Z,102074.31
2018-05-17T10:42:40.840Z,102076.41
2018-05-17T10:45:07.756Z,102069.22
2018-05-17T10:47:35.324Z,102074.31
2018-05-17T10:50:02.975Z,102076.72
2018-05-17T10:52:29.858Z,102084.80
2018-05-17T10:54:56.695Z,102075.64
2018-05-17T10:57:23.588Z,102081.04
2018-05-17T10:59:50.465Z,102087.28
2018-05-17T11:02:18.040Z,102074.91
2018-05-17T11:04:45.724Z,102082.19
2018-05-17T11:07:12.690Z,102072.39
2018-05-17T11:09:39.528Z,102075.33
2018-05-17T11:12:06.717Z,102079.30
2018-05-17T11:14:34.665Z,102075.43
2018-05-17T11:17:01.501Z,102066.89
2018-05-17T11:19:28.335Z,102061.73
2018-05-17T11:21:55.212Z,102070.97
2018-05-17T11:24:22.052Z,102076.57
2018-05-17T11:26:49.000Z,102064.69
2018-05-17T11:29:15.864Z,102065.97
2018-05-17T11:31:42.748Z,102065.03
2018-05-17T11:34:09.584Z,102064.62
2018-05-17T11:36:36.508Z,102066.88
2018-05-17T11:39:06.322Z,102074.25
2018-05-17T11:41:33.184Z,102063.58
2018-05-17T11:44:00.053Z,102061.72
2018-05-17T11:46:26.883Z,102064.37
2018-05-17T11:48:54.056Z,102062.54
2018-05-17T11:51:21.088Z,102057.82
2018-05-17T11:53:47.931Z,102059.86
2018-05-17T11:56:14.805Z,102059.97
2018-05-17T11:58:41.671Z,102068.23
2018-05-17T12:01:09.240Z,102058.02
2018-05-17T12:03:36.818Z,102055.84
2018-05-17T12:06:03.690Z,102055.02
2018-05-17T12:08:30.505Z,102057.77
2018-05-17T12:10:57.346Z,102057.91
2018-05-17T12:13:24.219Z,102056.76
2018-05-17T12:15:51.039Z,102050.07
2018-05-17T12:18:17.860Z,102048.42
2018-05-17T12:20:44.821Z,102049.41
2018-05-17T12:23:11.681Z,102045.49
2018-05-17T12:25:38.545Z,102044.24
2018-05-17T12:28:05.428Z,102040.99
2018-05-17T12:30:32.261Z,102039.81
2018-05-17T12:32:59.086Z,102037.73
2018-05-17T12:35:25.967Z,102038.22
2018-05-17T12:37:52.796Z,102038.62
2018-05-17T12:40:19.714Z,102041.45
2018-05-17T12:42:46.763Z,102038.20
2018-05-17T12:45:13.582Z,102036.90
2018-05-17T12:47:40.404Z,102037.23
2018-05-17T12:50:08.162Z,102040.91
2018-05-17T12:52:35.776Z,102041.26
2018-05-17T12:55:02.681Z,102041.23
2018-05-17T12:57:30.287Z,102043.23
2018-05-17T12:59:57.133Z,102045.42
2018-05-17T13:02:23.975Z,102036.52
2018-05-17T13:04:50.953Z,102036.11
2018-05-17T13:07:17.833Z,102038.29
2018-05-17T13:09:44.667Z,102044.33
2018-05-17T13:12:12.424Z,102040.91
2018-05-17T13:14:40.115Z,102043.48
2018-05-17T13:17:06.863Z,102040.59
2018-05-17T13:19:33.752Z,102042.39
2018-05-17T13:22:00.587Z,102041.70
2018-05-17T13:24:27.412Z,102038.52
2018-05-17T13:26:54.283Z,102045.13
2018-05-17T13:29:21.107Z,102038.22
2018-05-17T13:31:47.923Z,102032.27
2018-05-17T13:34:14.809Z,102030.27
2018-05-17T13:36:41.637Z,102033.51
2018-05-17T13:39:08.471Z,102041.16
2018-05-17T13:41:35.424Z,102028.09
2018-05-17T13:44:02.301Z,102028.49
2018-05-17T13:46:29.147Z,102033.28
2018-05-17T13:48:56.145Z,102028.45
2018-05-17T13:51:22.978Z,102024.62
2018-05-17T13:53:49.833Z,102030.60
2018-05-17T13:56:16.715Z,102025.95
2018-05-17T13:58:43.623Z,102029.75
2018-05-17T14:01:10.500Z,102027.11
2018-05-17T14:03:37.334Z,102034.94
2018-05-17T14:06:04.175Z,102040.55
2018-05-17T14:08:31.058Z,102029.17
2018-05-17T14:10:57.894Z,102029.91
2018-05-17T14:13:24.741Z,102024.88
2018-05-17T14:15:51.835Z,102030.67
2018-05-17T14:18:18.663Z,102033.94
2018-05-17T14:20:45.492Z,102031.02
2018-05-17T14:23:13.390Z,102030.45
2018-05-17T14:25:40.116Z,102026.85
2018-05-17T14:28:07.679Z,102031.85
2018-05-17T14:30:34.566Z,102032.75
2018-05-17T14:33:01.400Z,102033.25
2018-05-17T14:35:28.226Z,102035.77
2018-05-17T14:37:55.196Z,102033.67
2018-05-17T14:40:22.044Z,102030.52
2018-05-17T14:42:49.112Z,102031.55
2018-05-17T14:45:16.799Z,102029.89
2018-05-17T14:47:44.373Z,102030.41
2018-05-17T14:50:11.201Z,102027.52
2018-05-17T14:52:38.826Z,102029.25
2018-05-17T14:55:05.706Z,102021.76
2018-05-17T14:57:33.305Z,102025.12
2018-05-17T15:00:00.233Z,102029.34
2018-05-17T15:02:29.026Z,102024.52
2018-05-17T15:04:57.528Z,102039.31
2018-05-17T15:07:27.843Z,102031.27
2018-05-17T15:09:57.413Z,102034.11
2018-05-17T15:12:25.679Z,102037.42
2018-05-17T15:14:53.520Z,102041.59
2018-05-17T15:17:20.344Z,102032.95
2018-05-17T15:19:47.236Z,102032.50
2018-05-17T15:22:14.107Z,102029.33
2018-05-17T15:24:41.674Z,102030.89
2018-05-17T15:27:09.252Z,102039.62
2018-05-17T15:29:36.132Z,102028.23
2018-05-17T15:32:03.002Z,102027.03
2018-05-17T15:34:29.845Z,102022.28
2018-05-17T15:36:56.832Z,102016.55
2018-05-17T15:39:23.657Z,102016.09
2018-05-17T15:41:51.234Z,102018.50
2018-05-17T15:44:18.130Z,102009.84
2018-05-17T15:46:44.965Z,102009.11
2018-05-17T15:49:11.792Z,102007.28
2018-05-17T15:51:38.760Z,102003.41
2018-05-17T15:54:05.587Z,102010.61
2018-05-17T15:56:32.459Z,102012.56
2018-05-17T15:58:59.484Z,102006.69
2018-05-17T16:01:26.418Z,102008.52
2018-05-17T16:03:53.311Z,102004.47
2018-05-17T16:06:21.000Z,102009.94
2018-05-17T16:08:47.880Z,101998.94
2018-05-17T16:11:14.708Z,102009.89
2018-05-17T16:13:41.578Z,102012.98
2018-05-17T16:16:08.431Z,102009.03
2018-05-17T16:18:35.267Z,102011.97
2018-05-17T16:21:02.191Z,102013.97
2018-05-17T16:23:29.268Z,102016.27
2018-05-17T16:25:56.109Z,102011.27
2018-05-17T16:28:23.001Z,102008.59
2018-05-17T16:30:50.612Z,102003.06
2018-05-17T16:33:17.447Z,102008.70
2018-05-17T16:35:44.471Z,102013.64
2018-05-17T16:38:11.303Z,102010.02
2018-05-17T16:40:38.147Z,102007.01
2018-05-17T16:43:05.773Z,102013.21
2018-05-17T16:45:32.607Z,102014.06
2018-05-17T16:47:59.443Z,102017.63
2018-05-17T16:50:26.319Z,102015.16
2018-05-17T16:52:53.273Z,102021.58
2018-05-17T16:55:20.773Z,102021.70
2018-05-17T16:57:47.696Z,102017.02
2018-05-17T17:00:14.536Z,102019.13
2018-05-17T17:02:42.144Z,102018.58
2018-05-17T17:05:09.104Z,102022.31
2018-05-17T17:07:35.920Z,102020.91
2018-05-17T17:10:02.829Z,102024.89
2018-05-17T17:12:30.444Z,102025.84
2018-05-17T17:14:57.292Z,102020.14
2018-05-17T17:17:24.132Z,102018.67
2018-05-17T17:19:51.132Z,102019.73
2018-05-17T17:22:18.024Z,102020.19
2018-05-17T17:24:44.859Z,102017.41
2018-05-17T17:27:11.899Z,102023.83
2018-05-17T17:29:38.740Z,102026.00
2018-05-17T17:32:05.657Z,102021.95
2018-05-17T17:34:33.283Z,102022.98
2018-05-17T17:37:00.088Z,102021.19
2018-05-17T17:39:26.915Z,102030.88
2018-05-17T17:41:53.775Z,102025.96
2018-05-17T17:44:20.584Z,102023.02
2018-05-17T17:46:48.165Z,102024.54
2018-05-17T17:49:15.144Z,102032.20
2018-05-17T17:51:41.989Z,102031.75
2018-05-17T17:54:08.951Z,102031.44
2018-05-17T17:56:35.840Z,102028.09
2018-05-17T17:59:02.684Z,102041.09
2018-05-17T18:01:30.252Z,102043.24
2018-05-17T18:03:57.221Z,102048.89
2018-05-17T18:06:24.067Z,102040.50
2018-05-17T18:08:50.903Z,102044.28
2018-05-17T18:11:17.777Z,102041.81
2018-05-17T18:13:44.612Z,102041.81
2018-05-17T18:16:11.437Z,102037.23
2018-05-17T18:18:39.232Z,102047.22
2018-05-17T18:21:06.061Z,102049.96
2018-05-17T18:23:32.892Z,102049.31
2018-05-17T18:25:59.762Z,102054.11
2018-05-17T18:28:26.592Z,102056.70
2018-05-17T18:30:53.425Z,102056.05
2018-05-17T18:33:20.307Z,102050.11
2018-05-17T18:35:47.195Z,102052.36
2018-05-17T18:38:14.051Z,102060.84
2018-05-17T18:40:41.083Z,102059.94
2018-05-17T18:43:08.722Z,102072.96
2018-05-17T18:45:36.329Z,102065.05
2018-05-17T18:48:03.391Z,102067.83
2018-05-17T18:50:30.226Z,102076.51
2018-05-17T18:52:57.065Z,102072.34
2018-05-17T18:55:24.596Z,102066.84
2018-05-17T18:57:52.176Z,102073.31
2018-05-17T19:00:19.091Z,102080.87
2018-05-17T19:02:46.173Z,102080.87
2018-05-17T19:05:12.963Z,102079.41
2018-05-17T19:07:39.800Z,102086.38
2018-05-17T19:10:06.661Z,102087.53
2018-05-17T19:12:33.595Z,102084.61
2018-05-17T19:15:00.746Z,102090.58
2018-05-17T19:17:28.821Z,102086.00
2018-05-17T19:19:55.658Z,102095.17
2018-05-17T19:22:22.500Z,102088.22
2018-05-17T19:24:49.364Z,102098.95
2018-05-17T19:27:16.217Z,102106.09
2018-05-17T19:29:43.048Z,102103.27
2018-05-17T19:32:09.945Z,102115.59
2018-05-17T19:34:36.783Z,102104.21
2018-05-17T19:37:03.748Z,102112.00
2018-05-17T19:39:30.552Z,102120.33
2018-05-17T19:41:58.120Z,102118.59
2018-05-17T19:44:24.949Z,102118.48
2018-05-17T19:46:51.851Z,102122.25
2018-05-17T19:49:18.686Z,102127.52
2018-05-17T19:51:45.508Z,102125.92
2018-05-17T19:54:12.407Z,102130.19
2018-05-17T19:56:39.241Z,102131.37
2018-05-17T19:59:06.112Z,102127.22
2018-05-17T20:01:33.750Z,102148.51
2018-05-17T20:04:00.626Z,102145.77
2018-05-17T20:06:27.509Z,102145.42
2018-05-17T20:08:54.563Z,102144.12
2018-05-17T20:11:22.130Z,102146.80
2018-05-17T20:13:48.964Z,102142.75
2018-05-17T20:16:16.084Z,102139.90
2018-05-17T20:18:43.721Z,102139.88
2018-05-17T20:21:10.540Z,102142.25
2018-05-17T20:23:37.410Z,102136.45
2018-05-17T20:26:04.263Z,102144.03
2018-05-17T20:28:31.127Z,102139.00
2018-05-17T20:30:58.074Z,102141.72
2018-05-17T20:33:25.645Z,102142.67
2018-05-17T20:35:52.524Z,102142.11
2018-05-17T20:38:20.529Z,102137.87
2018-05-17T20:40:47.355Z,102141.56
2018-05-17T20:43:14.192Z,102141.02
2018-05-17T20:45:41.085Z,102132.97
2018-05-17T20:48:07.919Z,102139.20
2018-05-17T20:50:35.502Z,102137.44
2018-05-17T20:53:02.379Z,102136.99
2018-05-17T20:55:29.250Z,102139.55
2018-05-17T20:57:56.325Z,102138.91
2018-05-17T21:00:23.979Z,102140.09
2018-05-17T21:02:51.650Z,102135.77
2018-05-17T21:05:19.220Z,102136.65
2018-05-17T21:07:46.172Z,102137.53
2018-05-17T21:10:13.016Z,102149.31
2018-05-17T21:12:39.879Z,102145.66
2018-05-17T21:15:06.877Z,102148.60
2018-05-17T21:17:33.709Z,102143.47
2018-05-17T21:20:00.549Z,102141.05
2018-05-17T21:22:27.529Z,102137.86
2018-05-17T21:24:55.104Z,102139.14
2018-05-17T21:27:21.957Z,102134.27
2018-05-17T21:29:48.961Z,102138.70
2018-05-17T21:32:15.801Z,102138.13
2018-05-17T21:34:42.636Z,102143.43
2018-05-17T21:37:09.513Z,102135.33
2018-05-17T21:39:37.115Z,102130.44
2018-05-17T21:42:03.969Z,102133.34
2018-05-17T21:44:30.858Z,102143.78
2018-05-17T21:46:58.436Z,102139.19
2018-05-17T21:49:25.300Z,102140.07
2018-05-17T21:51:52.197Z,102144.71
2018-05-17T21:54:19.053Z,102138.13
2018-05-17T21:56:45.879Z,102141.52
2018-05-17T21:59:12.881Z,102141.73
2018-05-17T22:01:39.726Z,102144.59
2018-05-17T22:04:06.677Z,102140.34
2018-05-17T22:06:33.564Z,102136.03
2018-05-17T22:09:00.415Z,102141.16
2018-05-17T22:11:27.247Z,102141.33
2018-05-17T22:13:58.290Z,102139.45
2018-05-17T22:16:25.195Z,102137.59
2018-05-17T22:18:52.155Z,102135.51
2018-05-17T22:21:19.048Z,102135.69
2018-05-17T22:23:45.908Z,102142.10
2018-05-17T22:26:12.756Z,102138.66
2018-05-17T22:28:39.652Z,102137.05
2018-05-17T22:31:07.273Z,102138.89
2018-05-17T22:33:34.108Z,102137.94
2018-05-17T22:36:01.016Z,102147.86
2018-05-17T22:38:27.861Z,102135.51
2018-05-17T22:40:54.719Z,102146.34
2018-05-17T22:43:22.708Z,102143.79
2018-05-17T22:45:49.557Z,102140.17
2018-05-17T22:48:16.396Z,102147.96
2018-05-17T22:50:43.309Z,102150.28
2018-05-17T22:53:10.192Z,102147.47
2018-05-17T22:55:37.044Z,102151.72
2018-05-17T22:58:22.521Z,102149.65
2018-05-17T23:00:49.371Z,102158.13
2018-05-17T23:03:16.227Z,102146.67
2018-05-17T23:05:43.242Z,102147.84
2018-05-17T23:08:10.101Z,102149.99
2018-05-17T23:10:36.938Z,102144.24
2018-05-17T23:13:03.845Z,102139.38
2018-05-17T23:15:30.687Z,102148.08
2018-05-17T23:17:57.524Z,102142.33
2018-05-17T23:20:24.724Z,102141.23
2018-05-17T23:22:51.578Z,102144.58
2018-05-17T23:25:18.475Z,102143.68
2018-05-17T23:27:45.459Z,102146.19
2018-05-17T23:30:12.292Z,102138.20
2018-05-17T23:32:39.871Z,102141.13
2018-05-17T23:35:07.125Z,102130.86
2018-05-17T23:37:33.968Z,102143.68
2018-05-17T23:40:19.296Z,102132.77
2018-05-17T23:42:46.155Z,102131.45
2018-05-17T23:45:12.996Z,102131.57
2018-05-17T23:47:39.924Z,102131.33
2018-05-17T23:50:06.792Z,102129.72
2018-05-17T23:52:34.402Z,102132.79
2018-05-17T23:55:01.642Z,102133.50
2018-05-17T23:57:28.498Z,102133.19
2018-05-17T23:59:55.328Z,102132.16
